createdAt,value
2018-11-13T00:00:03.132Z,11.30
2018-11-13T00:02:31.488Z,11.40
2018-11-13T00:04:59.849Z,11.40
2018-11-13T00:07:29.238Z,11.40
2018-11-13T00:09:57.613Z,11.30
2018-11-13T00:12:26.066Z,11.30
2018-11-13T00:14:54.474Z,11.30
2018-11-13T00:17:22.832Z,11.40
2018-11-13T00:19:51.186Z,11.30
2018-11-13T00:22:19.528Z,11.30
2018-11-13T00:24:48.053Z,11.30
2018-11-13T00:27:16.416Z,11.20
2018-11-13T00:29:44.738Z,11.10
2018-11-13T00:32:13.246Z,11.10
2018-11-13T00:34:41.685Z,11.20
2018-11-13T00:37:10.095Z,11.20
2018-11-13T00:39:39.366Z,11.20
2018-11-13T00:42:07.731Z,11.10
2018-11-13T00:44:36.097Z,11.10
2018-11-13T00:47:04.505Z,11.20
2018-11-13T00:49:32.870Z,11.20
2018-11-13T00:52:01.230Z,11.10
2018-11-13T00:54:29.581Z,11.10
2018-11-13T00:56:58.633Z,11.10
2018-11-13T00:59:27.190Z,11.20
2018-11-13T01:01:56.629Z,11.30
2018-11-13T01:04:24.951Z,11.30
2018-11-13T01:06:53.555Z,11.30
2018-11-13T01:09:21.957Z,11.30
2018-11-13T01:11:50.366Z,11.20
2018-11-13T01:14:18.726Z,11.20
2018-11-13T01:16:47.082Z,11.20
2018-11-13T01:19:15.476Z,11.20
2018-11-13T01:21:43.804Z,11.10
2018-11-13T01:24:15.744Z,11.20
2018-11-13T01:26:44.376Z,11.20
2018-11-13T01:29:13.364Z,11.20
2018-11-13T01:31:41.700Z,11.20
2018-11-13T01:34:10.382Z,11.20
2018-11-13T01:36:38.715Z,11.30
2018-11-13T01:39:09.150Z,11.30
2018-11-13T01:41:37.557Z,11.20
2018-11-13T01:44:06.504Z,11.20
2018-11-13T01:46:35.052Z,11.20
2018-11-13T01:49:03.520Z,11.10
2018-11-13T01:51:31.958Z,11.00
2018-11-13T01:54:00.629Z,11.00
2018-11-13T01:56:29.436Z,11.00
2018-11-13T01:58:57.796Z,11.00
2018-11-13T02:01:26.130Z,11.00
2018-11-13T02:03:54.446Z,11.00
2018-11-13T02:06:23.238Z,11.00
2018-11-13T02:08:51.689Z,11.00
2018-11-13T02:11:20.085Z,11.00
2018-11-13T02:13:48.447Z,10.90
2018-11-13T02:16:16.909Z,10.90
2018-11-13T02:18:46.412Z,11.00
2018-11-13T02:21:15.233Z,11.00
2018-11-13T02:23:43.648Z,11.10
2018-11-13T02:26:12.002Z,11.10
2018-11-13T02:28:40.400Z,11.00
2018-11-13T02:31:08.780Z,11.10
2018-11-13T02:33:37.150Z,11.10
2018-11-13T02:36:05.965Z,11.10
2018-11-13T02:38:34.353Z,11.20
2018-11-13T02:41:02.727Z,11.20
2018-11-13T02:43:31.069Z,11.20
2018-11-13T02:45:59.490Z,11.20
2018-11-13T02:48:27.828Z,11.20
2018-11-13T02:50:56.139Z,11.20
2018-11-13T02:53:24.526Z,11.20
2018-11-13T02:55:52.821Z,11.20
2018-11-13T02:58:21.158Z,11.20
2018-11-13T03:00:49.494Z,11.20
2018-11-13T03:03:17.811Z,11.10
2018-11-13T03:05:46.409Z,11.20
2018-11-13T03:08:14.781Z,11.20
2018-11-13T03:10:43.150Z,11.10
2018-11-13T03:13:11.483Z,11.10
2018-11-13T03:15:39.777Z,11.10
2018-11-13T03:18:08.189Z,11.10
2018-11-13T03:20:36.549Z,11.20
2018-11-13T03:23:04.969Z,11.10
2018-11-13T03:25:33.519Z,11.10
2018-11-13T03:28:02.729Z,11.10
2018-11-13T03:30:31.044Z,11.10
2018-11-13T03:32:59.444Z,11.10
2018-11-13T03:35:27.805Z,11.10
2018-11-13T03:37:56.128Z,11.20
2018-11-13T03:40:24.473Z,11.20
2018-11-13T03:42:52.811Z,11.20
2018-11-13T03:45:21.361Z,11.20
2018-11-13T03:47:49.746Z,11.20
2018-11-13T03:50:19.166Z,11.20
2018-11-13T03:52:48.056Z,11.20
2018-11-13T03:55:16.950Z,11.20
2018-11-13T03:57:46.661Z,11.20
2018-11-13T04:00:16.238Z,11.20
2018-11-13T04:02:44.611Z,11.20
2018-11-13T04:05:16.841Z,11.10
2018-11-13T04:07:46.399Z,11.20
2018-11-13T04:10:15.822Z,11.20
2018-11-13T04:12:44.298Z,11.20
2018-11-13T04:15:15.714Z,11.30
2018-11-13T04:17:44.020Z,11.30
2018-11-13T04:20:14.151Z,11.20
2018-11-13T04:22:43.033Z,11.20
2018-11-13T04:25:11.401Z,11.20
2018-11-13T04:27:39.897Z,11.20
2018-11-13T04:30:09.815Z,11.30
2018-11-13T04:32:38.521Z,11.30
2018-11-13T04:35:08.370Z,11.30
2018-11-13T04:37:36.709Z,11.20
2018-11-13T04:40:07.561Z,11.20
2018-11-13T04:42:35.913Z,11.20
2018-11-13T04:45:05.297Z,11.10
2018-11-13T04:47:36.713Z,11.10
2018-11-13T04:50:05.964Z,11.20
2018-11-13T04:52:34.342Z,11.20
2018-11-13T04:55:02.678Z,11.20
2018-11-13T04:57:30.978Z,11.20
2018-11-13T04:59:59.260Z,11.20
2018-11-13T05:02:27.589Z,11.20
2018-11-13T05:04:55.946Z,11.20
2018-11-13T05:07:24.229Z,11.20
2018-11-13T05:09:52.838Z,11.30
2018-11-13T05:12:21.149Z,11.30
2018-11-13T05:14:50.454Z,11.30
2018-11-13T05:17:18.854Z,11.20
2018-11-13T05:19:47.189Z,11.30
2018-11-13T05:22:16.572Z,11.30
2018-11-13T05:24:44.876Z,11.30
2018-11-13T05:27:13.194Z,11.40
2018-11-13T05:29:41.543Z,11.40
2018-11-13T05:32:09.902Z,11.40
2018-11-13T05:34:38.226Z,11.40
2018-11-13T05:37:06.542Z,11.40
2018-11-13T05:39:34.918Z,11.40
2018-11-13T05:42:03.238Z,11.30
2018-11-13T05:44:31.578Z,11.30
2018-11-13T05:46:59.918Z,11.30
2018-11-13T05:49:28.232Z,11.40
2018-11-13T05:51:56.718Z,11.40
2018-11-13T05:54:25.014Z,11.40
2018-11-13T05:56:54.273Z,11.30
2018-11-13T05:59:22.670Z,11.40
2018-11-13T06:01:51.140Z,11.30
2018-11-13T06:04:19.549Z,11.30
2018-11-13T06:06:48.003Z,11.30
2018-11-13T06:09:16.350Z,11.40
2018-11-13T06:11:44.640Z,11.40
2018-11-13T06:14:13.153Z,11.40
2018-11-13T06:16:41.362Z,11.50
2018-11-13T06:19:10.959Z,11.60
2018-11-13T06:21:39.382Z,11.60
2018-11-13T06:24:07.834Z,11.70
2018-11-13T06:26:36.195Z,11.70
2018-11-13T06:29:04.839Z,11.70
2018-11-13T06:31:38.632Z,11.70
2018-11-13T06:34:12.039Z,11.60
2018-11-13T06:36:41.715Z,11.50
2018-11-13T06:39:12.806Z,11.40
2018-11-13T06:41:41.785Z,11.50
2018-11-13T06:44:14.525Z,11.30
2018-11-13T06:46:44.365Z,11.20
2018-11-13T06:49:13.176Z,11.20
2018-11-13T06:51:42.405Z,11.10
2018-11-13T06:54:21.941Z,11.10
2018-11-13T06:56:50.695Z,11.00
2018-11-13T06:59:23.290Z,10.90
2018-11-13T07:01:55.865Z,10.90
2018-11-13T07:04:24.751Z,10.90
2018-11-13T07:06:53.080Z,10.90
2018-11-13T07:09:26.007Z,10.90
2018-11-13T07:11:58.537Z,10.80
2018-11-13T07:17:05.594Z,10.70
2018-11-13T07:19:34.003Z,10.60
2018-11-13T07:22:02.473Z,10.70
2018-11-13T07:24:36.597Z,10.70
2018-11-13T07:27:09.605Z,10.70
2018-11-13T07:29:43.422Z,10.70
2018-11-13T07:32:16.734Z,10.80
2018-11-13T07:34:55.233Z,10.80
2018-11-13T07:37:27.488Z,10.80
2018-11-13T07:40:01.163Z,10.80
2018-11-13T07:42:34.644Z,10.90
2018-11-13T07:45:06.972Z,10.90
2018-11-13T07:47:36.733Z,11.10
2018-11-13T07:50:08.086Z,11.10
2018-11-13T07:52:36.555Z,11.10
2018-11-13T07:55:12.879Z,11.20
2018-11-13T07:57:44.958Z,11.20
2018-11-13T08:00:21.021Z,11.30
2018-11-13T08:02:53.387Z,11.30
2018-11-13T08:05:27.451Z,11.40
2018-11-13T08:07:59.900Z,11.50
2018-11-13T08:10:33.171Z,11.50
2018-11-13T08:13:02.138Z,11.50
2018-11-13T08:15:30.929Z,11.60
2018-11-13T08:18:02.700Z,11.70
2018-11-13T08:20:38.535Z,11.90
2018-11-13T08:23:10.653Z,12.00
2018-11-13T08:25:43.481Z,12.10
2018-11-13T08:28:17.054Z,12.10
2018-11-13T08:30:45.443Z,12.20
2018-11-13T08:33:14.120Z,12.40
2018-11-13T08:35:45.595Z,12.60
2018-11-13T08:38:19.287Z,12.90
2018-11-13T08:40:51.875Z,13.00
2018-11-13T08:43:20.225Z,13.00
2018-11-13T08:45:48.776Z,13.20
2018-11-13T08:48:20.639Z,13.30
2018-11-13T08:50:53.614Z,13.40
2018-11-13T08:53:22.290Z,13.40
2018-11-13T08:55:50.938Z,13.40
2018-11-13T08:58:21.965Z,13.40
2018-11-13T09:00:54.947Z,13.40
2018-11-13T09:03:28.097Z,13.50
2018-11-13T09:05:56.429Z,13.50
2018-11-13T09:08:24.796Z,13.50
2018-11-13T09:10:57.401Z,13.50
2018-11-13T09:13:30.359Z,13.50
2018-11-13T09:15:59.159Z,13.30
2018-11-13T09:18:28.056Z,13.20
2018-11-13T09:20:59.462Z,12.90
2018-11-13T09:23:32.980Z,12.80
2018-11-13T09:26:05.869Z,12.70
2018-11-13T09:28:34.436Z,12.80
2018-11-13T09:31:03.476Z,12.90
2018-11-13T09:33:35.292Z,13.00
2018-11-13T09:36:08.419Z,13.10
2018-11-13T09:38:41.767Z,13.20
2018-11-13T09:43:43.514Z,13.50
2018-11-13T09:46:13.690Z,13.50
2018-11-13T09:48:46.555Z,13.50
2018-11-13T09:51:18.138Z,13.50
2018-11-13T09:53:51.419Z,13.50
2018-11-13T09:56:22.407Z,13.50
2018-11-13T09:58:51.184Z,13.60
2018-11-13T10:01:20.198Z,13.50
2018-11-13T10:03:52.744Z,13.50
2018-11-13T10:06:20.521Z,13.50
2018-11-13T10:08:49.152Z,13.50
2018-11-13T10:11:17.585Z,13.60
2018-11-13T10:13:45.947Z,13.60
2018-11-13T10:16:14.717Z,13.60
2018-11-13T10:18:47.929Z,13.60
2018-11-13T10:23:41.905Z,13.60
2018-11-13T10:26:15.346Z,13.70
2018-11-13T10:28:48.237Z,13.70
2018-11-13T10:31:17.418Z,13.90
2018-11-13T10:33:46.945Z,14.10
2018-11-13T10:36:17.109Z,14.30
2018-11-13T10:38:49.798Z,14.50
2018-11-13T10:43:51.722Z,14.40
2018-11-13T10:46:21.234Z,14.40
2018-11-13T10:48:52.594Z,14.30
2018-11-13T10:51:25.786Z,14.10
2018-11-13T10:53:59.102Z,13.90
2018-11-13T10:56:27.731Z,13.90
2018-11-13T10:58:56.390Z,13.80
2018-11-13T11:01:32.960Z,13.70
2018-11-13T11:04:02.734Z,13.70
2018-11-13T11:06:35.256Z,13.60
2018-11-13T11:09:08.722Z,13.50
2018-11-13T11:11:40.646Z,13.40
2018-11-13T11:14:09.361Z,13.30
2018-11-13T11:16:37.718Z,13.30
2018-11-13T11:19:11.464Z,13.30
2018-11-13T11:21:45.600Z,13.30
2018-11-13T11:24:19.562Z,13.20
2018-11-13T11:26:53.222Z,13.30
2018-11-13T11:29:24.330Z,13.30
2018-11-13T11:31:53.924Z,13.30
2018-11-13T11:34:22.395Z,13.30
2018-11-13T11:36:57.321Z,13.40
2018-11-13T11:39:29.748Z,13.50
2018-11-13T11:42:02.621Z,13.70
2018-11-13T11:44:35.942Z,13.70
2018-11-13T11:47:04.761Z,13.70
2018-11-13T11:49:33.788Z,13.80
2018-11-13T11:52:04.982Z,13.90
2018-11-13T11:54:40.002Z,13.90
2018-11-13T11:57:08.395Z,14.00
2018-11-13T11:59:36.723Z,14.00
2018-11-13T12:02:05.754Z,14.10
2018-11-13T12:04:34.093Z,14.00
2018-11-13T12:07:04.496Z,14.00
2018-11-13T12:09:33.926Z,13.90
2018-11-13T12:12:07.065Z,14.00
2018-11-13T12:14:40.226Z,14.00
2018-11-13T12:17:15.186Z,14.00
2018-11-13T12:19:48.595Z,14.00
2018-11-13T12:22:17.159Z,14.10
2018-11-13T12:24:45.848Z,14.10
2018-11-13T12:27:17.497Z,14.00
2018-11-13T12:29:50.989Z,13.90
2018-11-13T12:32:24.099Z,13.80
2018-11-13T12:34:56.150Z,13.80
2018-11-13T12:37:25.507Z,13.80
2018-11-13T12:39:53.827Z,13.80
2018-11-13T12:42:28.294Z,13.80
2018-11-13T12:45:00.190Z,13.80
2018-11-13T12:47:33.312Z,13.90
2018-11-13T12:50:02.021Z,14.00
2018-11-13T12:52:30.744Z,14.00
2018-11-13T12:55:02.043Z,13.90
2018-11-13T12:57:36.926Z,13.90
2018-11-13T13:00:12.778Z,13.80
2018-11-13T13:02:44.639Z,13.80
2018-11-13T13:05:18.230Z,13.80
2018-11-13T13:07:52.388Z,13.70
2018-11-13T13:10:26.531Z,13.70
2018-11-13T13:12:59.356Z,13.70
2018-11-13T13:15:27.761Z,13.70
2018-11-13T13:17:56.084Z,13.80
2018-11-13T13:20:28.223Z,13.80
2018-11-13T13:23:00.931Z,13.70
2018-11-13T13:28:02.712Z,13.60
2018-11-13T13:30:31.069Z,13.60
2018-11-13T13:33:03.266Z,13.60
2018-11-13T13:35:41.873Z,13.60
2018-11-13T13:38:12.817Z,13.50
2018-11-13T13:40:45.118Z,13.50
2018-11-13T13:43:19.070Z,13.50
2018-11-13T13:45:50.207Z,13.50
2018-11-13T13:48:19.146Z,13.60
2018-11-13T13:50:49.013Z,13.70
2018-11-13T13:53:23.328Z,13.70
2018-11-13T13:55:55.576Z,13.80
2018-11-13T13:58:30.162Z,13.90
2018-11-13T14:01:05.078Z,14.00
2018-11-13T14:03:37.506Z,14.10
2018-11-13T14:06:10.857Z,14.10
2018-11-13T14:08:39.451Z,14.00
2018-11-13T14:11:08.215Z,13.90
2018-11-13T14:13:39.826Z,13.80
2018-11-13T14:16:13.933Z,13.70
2018-11-13T14:18:47.283Z,13.70
2018-11-13T14:21:18.417Z,13.70
2018-11-13T14:23:47.884Z,13.70
2018-11-13T14:26:16.538Z,13.80
2018-11-13T14:28:49.405Z,13.80
2018-11-13T14:31:24.398Z,13.80
2018-11-13T14:33:57.329Z,13.80
2018-11-13T14:36:30.946Z,13.70
2018-11-13T14:39:01.601Z,13.60
2018-11-13T14:41:30.278Z,13.60
2018-11-13T14:43:58.990Z,13.50
2018-11-13T14:46:34.477Z,13.40
2018-11-13T14:49:09.827Z,13.40
2018-11-13T14:51:41.764Z,13.40
2018-11-13T14:54:20.164Z,13.40
2018-11-13T14:56:49.818Z,13.40
2018-11-13T14:59:24.690Z,13.30
2018-11-13T15:01:57.633Z,13.30
2018-11-13T15:04:30.653Z,13.30
2018-11-13T15:06:59.596Z,13.20
2018-11-13T15:09:28.376Z,13.20
2018-11-13T15:11:59.887Z,13.10
2018-11-13T15:14:35.255Z,13.00
2018-11-13T15:17:08.579Z,12.90
2018-11-13T15:19:41.146Z,12.80
2018-11-13T15:22:14.343Z,12.70
2018-11-13T15:24:42.994Z,12.70
2018-11-13T15:27:11.742Z,12.60
2018-11-13T15:29:42.910Z,12.60
2018-11-13T15:32:16.625Z,12.50
2018-11-13T15:34:49.401Z,12.50
2018-11-13T15:37:17.772Z,12.40
2018-11-13T15:39:48.616Z,12.40
2018-11-13T15:42:18.685Z,12.40
2018-11-13T15:44:53.881Z,12.40
2018-11-13T15:47:26.212Z,12.40
2018-11-13T15:49:59.567Z,12.30
2018-11-13T15:52:27.959Z,12.10
2018-11-13T15:54:57.751Z,12.10
2018-11-13T15:57:30.035Z,12.00
2018-11-13T16:00:02.793Z,11.90
2018-11-13T16:02:35.714Z,11.80
2018-11-13T16:05:05.408Z,11.90
2018-11-13T16:07:33.809Z,12.40
2018-11-13T16:10:02.404Z,12.50
2018-11-13T16:12:34.277Z,12.10
2018-11-13T16:15:02.949Z,11.80
2018-11-13T16:17:31.950Z,11.60
2018-11-13T16:20:05.834Z,11.50
2018-11-13T16:22:38.264Z,11.40
2018-11-13T16:25:12.284Z,11.30
2018-11-13T16:27:43.418Z,11.30
2018-11-13T16:30:13.897Z,11.20
2018-11-13T16:32:43.287Z,11.20
2018-11-13T16:35:17.677Z,11.20
2018-11-13T16:37:50.161Z,11.20
2018-11-13T16:40:23.591Z,11.20
2018-11-13T16:42:58.753Z,11.20
2018-11-13T16:45:32.042Z,11.10
2018-11-13T16:48:05.421Z,11.20
2018-11-13T16:50:38.116Z,11.20
2018-11-13T16:53:11.509Z,11.10
2018-11-13T16:55:46.527Z,11.00
2018-11-13T16:58:20.198Z,10.90
2018-11-13T17:00:48.763Z,11.10
2018-11-13T17:03:17.182Z,11.00
2018-11-13T17:05:49.507Z,10.90
2018-11-13T17:08:22.414Z,10.90
2018-11-13T17:10:56.245Z,10.80
2018-11-13T17:13:26.165Z,10.70
2018-11-13T17:15:55.132Z,10.70
2018-11-13T17:18:27.221Z,10.60
2018-11-13T17:20:59.385Z,10.60
2018-11-13T17:23:27.780Z,10.60
2018-11-13T17:25:56.396Z,10.40
2018-11-13T17:28:24.688Z,10.40
2018-11-13T17:30:52.998Z,10.40
2018-11-13T17:33:21.382Z,10.50
2018-11-13T17:35:49.758Z,10.50
2018-11-13T17:38:18.234Z,10.40
2018-11-13T17:40:46.713Z,10.40
2018-11-13T17:43:15.215Z,10.30
2018-11-13T17:45:43.563Z,10.20
2018-11-13T17:48:12.412Z,10.10
2018-11-13T17:50:42.054Z,10.10
2018-11-13T17:53:11.034Z,10.10
2018-11-13T17:55:39.734Z,10.10
2018-11-13T17:58:10.193Z,10.00
2018-11-13T18:00:40.730Z,10.00
2018-11-13T18:03:10.385Z,9.80
2018-11-13T18:05:39.437Z,9.90
2018-11-13T18:08:08.937Z,9.80
2018-11-13T18:10:38.838Z,9.90
2018-11-13T18:13:07.828Z,9.90
2018-11-13T18:15:36.712Z,10.10
2018-11-13T18:18:05.907Z,10.00
2018-11-13T18:20:35.722Z,9.90
2018-11-13T18:23:04.338Z,9.80
2018-11-13T18:25:32.686Z,9.70
2018-11-13T18:28:02.246Z,9.60
2018-11-13T18:30:32.508Z,9.50
2018-11-13T18:33:01.726Z,9.50
2018-11-13T18:35:31.459Z,9.50
2018-11-13T18:38:00.854Z,9.50
2018-11-13T18:40:29.582Z,9.50
2018-11-13T18:43:00.271Z,9.30
2018-11-13T18:45:31.601Z,9.30
2018-11-13T18:48:00.122Z,9.20
2018-11-13T18:50:30.677Z,9.10
2018-11-13T18:52:59.001Z,9.10
2018-11-13T18:55:27.519Z,9.00
2018-11-13T18:57:56.202Z,9.20
2018-11-13T19:00:32.441Z,9.10
2018-11-13T19:03:01.806Z,9.10
2018-11-13T19:05:30.225Z,9.10
2018-11-13T19:07:58.825Z,9.00
2018-11-13T19:10:34.002Z,9.30
2018-11-13T19:13:03.542Z,9.10
2018-11-13T19:15:33.635Z,9.10
2018-11-13T19:18:02.154Z,8.90
2018-11-13T19:20:30.757Z,8.80
2018-11-13T19:22:59.642Z,8.80
2018-11-13T19:28:04.008Z,8.70
2018-11-13T19:30:32.615Z,8.70
2018-11-13T19:33:01.113Z,8.70
2018-11-13T19:35:29.531Z,8.70
2018-11-13T19:37:57.886Z,8.60
2018-11-13T19:40:27.548Z,8.70
2018-11-13T19:42:56.809Z,8.50
2018-11-13T19:45:25.180Z,8.50
2018-11-13T19:47:53.877Z,8.40
2018-11-13T19:50:24.831Z,8.40
2018-11-13T19:52:53.208Z,9.00
2018-11-13T19:55:22.521Z,9.40
2018-11-13T19:57:50.879Z,9.50
2018-11-13T20:00:27.786Z,9.50
2018-11-13T20:02:57.348Z,9.30
2018-11-13T20:05:26.449Z,9.20
2018-11-13T20:07:54.749Z,9.00
2018-11-13T20:10:24.475Z,9.10
2018-11-13T20:12:53.718Z,9.20
2018-11-13T20:15:23.240Z,9.40
2018-11-13T20:17:51.603Z,9.30
2018-11-13T20:20:21.339Z,9.30
2018-11-13T20:22:50.476Z,9.00
2018-11-13T20:25:22.177Z,8.50
2018-11-13T20:27:50.731Z,8.30
2018-11-13T20:30:21.902Z,8.20
2018-11-13T20:32:50.311Z,8.20
2018-11-13T20:35:18.706Z,8.20
2018-11-13T20:37:48.021Z,8.00
2018-11-13T20:40:17.818Z,8.00
2018-11-13T20:42:47.370Z,8.00
2018-11-13T20:45:16.136Z,8.00
2018-11-13T20:47:44.506Z,7.90
2018-11-13T20:50:15.006Z,8.00
2018-11-13T20:52:43.434Z,7.90
2018-11-13T20:55:12.265Z,7.90
2018-11-13T20:57:40.868Z,7.80
2018-11-13T21:00:11.966Z,7.90
2018-11-13T21:02:41.043Z,7.90
2018-11-13T21:05:09.437Z,8.00
2018-11-13T21:07:38.048Z,7.80
2018-11-13T21:10:09.606Z,7.70
2018-11-13T21:12:38.162Z,7.70
2018-11-13T21:15:08.467Z,7.60
2018-11-13T21:17:37.011Z,7.70
2018-11-13T21:20:08.809Z,7.60
2018-11-13T21:22:37.204Z,7.60
2018-11-13T21:25:06.653Z,7.50
2018-11-13T21:27:35.437Z,7.50
2018-11-13T21:30:05.372Z,7.60
2018-11-13T21:32:33.586Z,7.60
2018-11-13T21:35:02.098Z,7.60
2018-11-13T21:37:30.583Z,7.70
2018-11-13T21:39:58.829Z,7.80
2018-11-13T21:42:27.200Z,7.70
2018-11-13T21:44:55.538Z,7.70
2018-11-13T21:50:01.558Z,7.70
2018-11-13T21:52:29.840Z,7.60
2018-11-13T21:54:58.386Z,7.70
2018-11-13T21:57:26.738Z,7.70
2018-11-13T21:59:55.140Z,7.80
2018-11-13T22:02:23.518Z,7.80
2018-11-13T22:04:52.052Z,7.70
2018-11-13T22:07:20.402Z,7.80
2018-11-13T22:09:48.876Z,7.80
2018-11-13T22:12:17.238Z,7.90
2018-11-13T22:14:45.553Z,7.90
2018-11-13T22:17:13.892Z,7.90
2018-11-13T22:19:42.295Z,7.90
2018-11-13T22:22:11.647Z,7.90
2018-11-13T22:24:39.974Z,8.00
2018-11-13T22:27:08.622Z,8.00
2018-11-13T22:29:37.108Z,8.10
2018-11-13T22:32:05.434Z,8.20
2018-11-13T22:34:33.766Z,8.20
2018-11-13T22:37:02.066Z,8.20
2018-11-13T22:39:30.778Z,8.20
2018-11-13T22:41:59.192Z,8.20
2018-11-13T22:44:27.921Z,8.20
2018-11-13T22:46:55.887Z,8.20
2018-11-13T22:49:24.213Z,8.20
2018-11-13T22:51:53.206Z,8.20
2018-11-13T22:54:21.595Z,8.30
2018-11-13T22:56:53.462Z,8.30
2018-11-13T22:59:21.826Z,8.20
2018-11-13T23:01:50.312Z,8.30
2018-11-13T23:04:18.663Z,8.30
2018-11-13T23:06:46.985Z,8.30
2018-11-13T23:09:15.310Z,8.20
2018-11-13T23:11:43.650Z,8.20
2018-11-13T23:14:11.982Z,8.20
2018-11-13T23:16:40.401Z,8.20
2018-11-13T23:19:09.622Z,8.20
2018-11-13T23:21:38.068Z,8.20
2018-11-13T23:24:06.535Z,8.20
2018-11-13T23:26:34.944Z,8.20
2018-11-13T23:29:03.246Z,8.10
2018-11-13T23:31:31.567Z,8.20
2018-11-13T23:33:59.907Z,8.20
2018-11-13T23:36:28.374Z,8.20
2018-11-13T23:38:56.738Z,8.20
2018-11-13T23:41:25.050Z,8.20
2018-11-13T23:43:53.454Z,8.20
2018-11-13T23:46:21.778Z,8.20
2018-11-13T23:48:50.110Z,8.20
2018-11-13T23:51:18.504Z,8.10
2018-11-13T23:53:46.894Z,8.10
2018-11-13T23:56:15.228Z,8.10
2018-11-13T23:58:43.536Z,8.10
